createdAt,value
2019-02-14T00:00:06.206Z,66.75
2019-02-14T00:02:36.693Z,66.86
2019-02-14T00:05:07.117Z,67.02
2019-02-14T00:07:37.470Z,67.15
2019-02-14T00:10:08.966Z,67.29
2019-02-14T00:12:39.341Z,67.58
2019-02-14T00:15:11.905Z,67.79
2019-02-14T00:17:42.820Z,67.88
2019-02-14T00:20:13.222Z,68.01
2019-02-14T00:22:44.123Z,68.18
2019-02-14T00:25:14.624Z,68.23
2019-02-14T00:27:44.988Z,68.30
2019-02-14T00:30:15.366Z,68.37
2019-02-14T00:32:45.924Z,68.28
2019-02-14T00:35:24.554Z,68.38
2019-02-14T00:37:49.901Z,68.36
2019-02-14T00:40:20.286Z,68.56
2019-02-14T00:42:51.240Z,68.62
2019-02-14T00:45:21.571Z,68.61
2019-02-14T00:47:52.182Z,68.55
2019-02-14T00:50:22.631Z,68.68
2019-02-14T00:52:52.990Z,68.57
2019-02-14T00:55:23.805Z,68.61
2019-02-14T00:57:54.112Z,68.61
2019-02-14T01:00:24.476Z,68.60
2019-02-14T01:02:57.241Z,68.60
2019-02-14T01:05:33.422Z,68.50
2019-02-14T01:08:00.014Z,68.55
2019-02-14T01:10:31.465Z,68.63
2019-02-14T01:13:01.920Z,68.38
2019-02-14T01:15:36.253Z,68.23
2019-02-14T01:18:07.409Z,68.10
2019-02-14T01:20:37.901Z,68.21
2019-02-14T01:23:08.398Z,68.11
2019-02-14T01:25:40.850Z,68.13
2019-02-14T01:28:12.320Z,68.07
2019-02-14T01:30:43.969Z,68.04
2019-02-14T01:33:14.331Z,68.16
2019-02-14T01:35:44.638Z,68.19
2019-02-14T01:38:15.015Z,68.34
2019-02-14T01:40:45.403Z,68.28
2019-02-14T01:43:15.899Z,68.42
2019-02-14T01:45:46.187Z,68.62
2019-02-14T01:48:17.029Z,68.72
2019-02-14T01:50:47.371Z,68.78
2019-02-14T01:53:17.770Z,68.82
2019-02-14T01:55:48.160Z,68.72
2019-02-14T01:58:18.734Z,68.68
2019-02-14T02:00:49.163Z,68.71
2019-02-14T02:03:19.490Z,68.95
2019-02-14T02:05:51.049Z,69.22
2019-02-14T03:46:16.452Z,72.89
2019-02-14T04:10:50.680Z,72.15
2019-02-14T04:31:41.709Z,71.92
2019-02-14T04:38:06.920Z,71.54
2019-02-14T04:45:07.307Z,71.55
2019-02-14T04:48:26.554Z,71.44
2019-02-14T07:51:48.628Z,68.46
2019-02-14T08:05:59.458Z,65.43
2019-02-14T08:20:00.975Z,63.98
2019-02-14T08:23:13.352Z,64.01
2019-02-14T08:33:53.336Z,62.80
2019-02-14T08:55:02.802Z,58.59
2019-02-14T10:59:19.216Z,41.03
2019-02-14T11:06:30.688Z,42.84
2019-02-14T11:13:29.922Z,44.21
2019-02-14T12:00:13.899Z,37.19
2019-02-14T12:03:03.545Z,37.39
2019-02-14T12:44:41.375Z,36.47
2019-02-14T12:47:33.972Z,36.07
2019-02-14T12:54:36.228Z,36.49
2019-02-14T13:13:09.234Z,35.36
2019-02-14T13:22:53.491Z,35.87
2019-02-14T13:59:27.772Z,38.51
2019-02-14T14:21:59.270Z,38.12
2019-02-14T14:29:03.899Z,38.36
2019-02-14T14:38:45.167Z,39.27
2019-02-14T14:42:14.622Z,38.46
2019-02-14T14:45:44.276Z,38.77
2019-02-14T14:55:53.038Z,38.76
2019-02-14T15:02:31.675Z,38.86
2019-02-14T15:05:46.929Z,38.75
2019-02-14T15:19:40.828Z,40.03
2019-02-14T15:26:08.315Z,42.23
2019-02-14T15:37:34.642Z,43.51
2019-02-14T15:40:44.391Z,44.05
2019-02-14T15:44:07.849Z,44.75
2019-02-14T15:47:39.944Z,44.90
2019-02-14T15:55:06.374Z,45.22
2019-02-14T16:05:49.270Z,47.32
2019-02-14T16:24:00.778Z,49.80
2019-02-14T16:27:57.205Z,50.57
2019-02-14T16:50:55.436Z,53.06
2019-02-14T17:05:32.749Z,54.24
2019-02-14T17:08:52.326Z,54.50
2019-02-14T17:27:05.871Z,55.86
2019-02-14T17:48:30.907Z,57.11
2019-02-14T17:51:54.278Z,57.34
2019-02-14T18:20:50.046Z,59.32
2019-02-14T18:24:22.689Z,59.28
2019-02-14T19:03:23.697Z,64.87
2019-02-14T19:06:31.842Z,65.32
2019-02-14T19:24:33.910Z,67.80
2019-02-14T19:31:12.546Z,68.31
2019-02-14T19:33:42.972Z,68.60
2019-02-14T19:36:13.909Z,68.92
2019-02-14T19:38:49.335Z,69.13
2019-02-14T19:41:26.543Z,69.44
2019-02-14T19:44:02.055Z,69.63
2019-02-14T19:46:37.427Z,69.91
2019-02-14T19:49:11.712Z,70.05
2019-02-14T19:51:47.432Z,69.90
2019-02-14T19:54:18.014Z,70.37
2019-02-14T19:56:49.061Z,70.53
2019-02-14T19:59:19.609Z,70.59
2019-02-14T20:01:49.958Z,70.85
2019-02-14T20:04:20.607Z,71.06
2019-02-14T20:06:50.955Z,71.27
2019-02-14T20:09:21.573Z,71.42
2019-02-14T20:11:52.545Z,71.60
2019-02-14T20:14:23.051Z,71.89
2019-02-14T20:16:53.298Z,71.91
2019-02-14T20:19:23.610Z,71.62
2019-02-14T20:21:54.167Z,71.64
2019-02-14T20:24:25.433Z,72.12
2019-02-14T20:26:55.703Z,72.52
2019-02-14T20:29:26.193Z,72.75
2019-02-14T20:31:56.471Z,72.64
2019-02-14T20:34:26.778Z,72.56
2019-02-14T20:36:57.083Z,72.59
2019-02-14T20:39:27.520Z,72.43
2019-02-14T20:41:57.884Z,72.43
2019-02-14T20:44:30.054Z,72.59
2019-02-14T20:47:01.198Z,72.55
2019-02-14T20:49:31.523Z,72.40
2019-02-14T20:52:02.381Z,72.38
2019-02-14T20:54:33.062Z,72.47
2019-02-14T20:57:05.241Z,72.64
2019-02-14T20:59:36.070Z,72.69
2019-02-14T21:02:07.424Z,72.71
2019-02-14T21:04:37.826Z,72.44
2019-02-14T21:07:08.076Z,72.19
2019-02-14T21:09:38.318Z,72.06
2019-02-14T21:12:09.041Z,72.19
2019-02-14T21:14:39.311Z,72.17
2019-02-14T21:17:09.681Z,72.31
2019-02-14T21:19:40.318Z,72.35
2019-02-14T21:22:18.179Z,72.34
2019-02-14T21:24:43.069Z,72.42
2019-02-14T21:27:13.526Z,72.42
2019-02-14T21:29:44.543Z,72.56
2019-02-14T21:32:14.902Z,72.67
2019-02-14T21:34:45.360Z,72.80
2019-02-14T21:37:15.732Z,72.97
2019-02-14T21:39:46.576Z,73.10
2019-02-14T21:42:20.851Z,73.30
2019-02-14T21:44:48.874Z,73.52
2019-02-14T21:47:19.349Z,73.58
2019-02-14T21:49:50.010Z,73.56
2019-02-14T21:52:20.639Z,73.65
2019-02-14T21:54:50.897Z,73.67
2019-02-14T21:57:21.303Z,73.83
2019-02-14T21:59:51.530Z,73.98
2019-02-14T22:02:21.857Z,73.96
2019-02-14T22:04:52.391Z,74.42
2019-02-14T22:07:23.106Z,74.48
2019-02-14T22:09:53.525Z,74.65
2019-02-14T22:12:38.892Z,74.76
2019-02-14T22:14:56.313Z,75.03
2019-02-14T22:17:26.629Z,75.01
2019-02-14T22:19:57.356Z,75.05
2019-02-14T22:22:27.622Z,75.12
2019-02-14T22:24:57.858Z,75.11
2019-02-14T22:27:28.264Z,75.19
2019-02-14T22:29:59.027Z,75.17
2019-02-14T22:32:29.482Z,75.28
2019-02-14T22:34:59.837Z,75.17
2019-02-14T22:37:30.123Z,75.14
2019-02-14T22:40:00.449Z,75.18
2019-02-14T22:42:30.720Z,75.25
2019-02-14T22:45:01.043Z,74.85
2019-02-14T22:47:31.266Z,75.08
2019-02-14T22:50:01.563Z,75.30
2019-02-14T22:52:31.945Z,75.47
2019-02-14T22:55:02.185Z,75.57
2019-02-14T22:57:32.447Z,75.72
2019-02-14T23:00:02.848Z,75.90
2019-02-14T23:02:33.072Z,75.94
2019-02-14T23:05:03.498Z,76.09
2019-02-14T23:07:34.217Z,76.29
2019-02-14T23:10:04.501Z,76.25
2019-02-14T23:12:34.949Z,76.37
2019-02-14T23:15:05.429Z,76.33
2019-02-14T23:17:35.710Z,76.45
2019-02-14T23:20:06.074Z,76.66
2019-02-14T23:22:36.321Z,76.57
2019-02-14T23:25:07.240Z,76.75
2019-02-14T23:27:37.504Z,76.95
2019-02-14T23:30:08.359Z,76.86
2019-02-14T23:32:39.592Z,76.94
2019-02-14T23:35:09.925Z,76.92
2019-02-14T23:37:40.234Z,76.98
2019-02-14T23:40:10.578Z,76.88
2019-02-14T23:42:40.838Z,76.81
2019-02-14T23:45:11.197Z,76.77
2019-02-14T23:47:41.505Z,76.67
2019-02-14T23:50:12.079Z,76.69
2019-02-14T23:52:42.400Z,76.72
2019-02-14T23:55:12.667Z,76.60
2019-02-14T23:57:43.178Z,76.64
